Flight Track Log - Related Links

Times and Time Zones

All times are in EDT time to prevent confusion due to time zone crossing. See the UCA3597 flight status page for this flight to view local times or setup timezone preferences in your user account.

Time Position Orientation Groundspeed Altitude Reporting Facility
EDT Latitude Longitude Course Direction KTS MPH feet Rate Location/Type
Thu 07:37:36 PM 42.2439 -76.0342 240° Southwest 254 292 3,500  Level New York Center
Thu 07:38:36 PM 42.2231 -76.0828 240° Southwest 161 185 4,900 1,400 Climbing New York Center
Thu 07:39:36 PM 42.1781 -76.1128 206° Southwest 156 180 6,300 1,350 Climbing New York Center
Thu 07:40:36 PM 42.1367 -76.1486 213° Southwest 170 196 7,600 1,350 Climbing New York Center
Thu 07:41:36 PM 42.0894 -76.1839 209° Southwest 188 216 9,000 1,200 Climbing New York Center
Thu 07:42:36 PM 42.0461 -76.2194 211° Southwest 188 216 10,000 500 Climbing New York Center
Thu 07:43:36 PM 41.9922 -76.2625 211° Southwest 205 236 10,000  Level New York Center
Thu 07:44:36 PM 41.9381 -76.3053 210° Southwest 227 261 10,000 -50 Level New York Center
Thu 07:45:36 PM 41.8903 -76.3458 212° Southwest 232 267 9,900  Descending New York Center
Thu 07:46:36 PM 41.8322 -76.3883 209° Southwest 232 267 10,000 50 Climbing New York Center
Thu 07:47:36 PM 41.7803 -76.4286 210° Southwest 226 260 10,000  Level New York Center
Thu 07:48:36 PM 41.7283 -76.4714 212° Southwest 226 260 10,000  Level New York Center
Thu 07:49:36 PM 41.6764 -76.5086 208° Southwest 226 260 10,000  Level New York Center
Thu 07:50:36 PM 41.6289 -76.5461 211° Southwest 221 254 10,000  Level New York Center
Thu 07:51:36 PM 41.5722 -76.5939 212° Southwest 221 254 10,000  Level New York Center
Thu 07:52:36 PM 41.5206 -76.6311 208° Southwest 216 249 10,000  Level New York Center
Thu 07:53:36 PM 41.4708 -76.6683 209° Southwest 216 249 10,000  Level New York Center
Thu 07:54:36 PM 41.4228 -76.7111 214° Southwest 216 249 10,000  Level New York Center
Thu 07:55:36 PM 41.3731 -76.7481 209° Southwest 216 249 10,000  Level New York Center
Thu 07:56:36 PM 41.3233 -76.7825 207° Southwest 216 249 10,000  Level New York Center
Thu 07:57:36 PM 41.2625 -76.7936 188° South 211 243 10,000  Level New York Center
Thu 07:58:36 PM 41.2036 -76.8050 188° South 211 243 10,000  Level New York Center
Thu 07:59:36 PM 41.1467 -76.8136 186° South 216 249 10,000  Level New York Center
Thu 08:00:36 PM 41.0856 -76.8275 190° South 221 254 10,000  Level New York Center
Thu 08:01:36 PM 41.0267 -76.8386 188° South 221 254 10,000  Level New York Center
Thu 08:02:36 PM 40.9700 -76.8500 189° South 221 254 10,000  Level New York Center
Thu 08:03:36 PM 40.9150 -76.8617 189° South 221 254 10,000  Level New York Center
Thu 08:04:36 PM 40.8519 -76.8725 187° South 221 254 10,000  Level New York Center
Thu 08:05:36 PM 40.7994 -76.8842 190° South 221 254 10,000  Level New York Center
Thu 08:06:36 PM 40.7358 -76.9033 193° South 221 254 10,000  Level New York Center
Thu 08:07:36 PM 40.6850 -76.9178 192° South 221 254 10,000  Level New York Center
Thu 08:08:36 PM 40.6194 -76.9394 194° South 221 254 10,000  Level New York Center
Thu 08:09:36 PM 40.5686 -76.9539 192° South 226 260 10,000  Level New York Center
Thu 08:10:36 PM 40.5047 -76.9756 194° South 226 260 10,000  Level New York Center
Thu 08:11:36 PM 40.4542 -76.9900 192° South 226 260 10,000  Level New York Center
Thu 08:12:36 PM 40.3906 -77.0089 193° South 220 253 10,000 -218 Level New York Center
Thu 08:14:21 PM 40.3000 -77.0333 192° South 217 250 9,400 -364 Descending Potomac TRACON
Thu 08:15:21 PM 40.2333 -77.0500 191° South 226 260 9,000 -200 Descending Potomac TRACON
Thu 08:16:21 PM 40.1667 -77.0833 201° Southwest 216 249 9,000  Level Potomac TRACON
Thu 08:17:21 PM 40.1167 -77.1000 194° South 210 242 9,000  Level Potomac TRACON
Thu 08:18:21 PM 40.0667 -77.1167 194° South 209 241 9,000  Level Potomac TRACON
Thu 08:19:21 PM 40.0000 -77.1333 191° South 237 273 9,000 -250 Level Potomac TRACON
Thu 08:20:21 PM 39.9333 -77.1500 191° South 251 289 8,500 -500 Descending Potomac TRACON
Thu 08:21:21 PM 39.8667 -77.2000 210° Southwest 270 311 8,000 -250 Descending Potomac TRACON
Thu 08:22:21 PM 39.8000 -77.2333 201° Southwest 250 288 8,000 -200 Level Potomac TRACON
Thu 08:23:21 PM 39.7333 -77.2833 210° Southwest 245 282 7,600 -496 Descending Potomac TRACON
Thu 08:24:22 PM 39.6833 -77.3333 218° Southwest 250 288 7,000 -650 Descending Potomac TRACON
Thu 08:25:21 PM 39.6167 -77.3833 210° Southwest 249 287 6,300 -500 Descending Potomac TRACON
Thu 08:26:22 PM 39.5667 -77.4167 207° Southwest 250 288 6,000 -496 Descending Potomac TRACON
Thu 08:27:22 PM 39.5000 -77.4333 191° South 247 284 5,300 -950 Descending Potomac TRACON
Thu 08:28:22 PM 39.4167 -77.4333 180° South 242 278 4,100 -650 Descending Potomac TRACON
Thu 08:29:22 PM 39.3667 -77.4333 180° South 231 266 4,000 -500 Descending Potomac TRACON
Thu 08:30:22 PM 39.3000 -77.4333 180° South 201 231 3,100 -500 Descending Potomac TRACON
Thu 08:31:22 PM 39.2500 -77.4333 180° South 206 237 3,000 -50 Descending Potomac TRACON
Thu 08:32:22 PM 39.1833 -77.4333 180° South 212 244 3,000  Level Potomac TRACON
Thu 08:33:22 PM 39.1333 -77.4333 180° South 203 234 3,000 -200 Level Potomac TRACON
Thu 08:34:22 PM 39.0833 -77.4333 180° South 176 203 2,600 -700 Descending Potomac TRACON
Thu 08:35:22 PM 39.0333 -77.4333 180° South 189 217 1,600 -900 Descending Potomac TRACON
Thu 08:36:22 PM 38.9833 -77.4333 180° South 145 167 800 -800 Descending Potomac TRACON
Thu 08:38:00 PM 38.9474 -77.4599 180° South  Level Estimated
Thu 08:45:00 PM 38.9474 -77.4599 349° North  Level Estimated
Thu 08:46:00 PM 38.9474 -77.4599 349° North  Level Estimated

Login

Don't have an account? Register now (free) for customized features, flight alerts, and more!